Lucile, ID

10:40 PM PDT on October 24, 2014 (GMT -0700)
Idaho Cnty AP, Grangeville, I | Change Station
CLOSE
Current Station
Airport
Location: Idaho Cnty AP, Grangeville, I,
Elevation: 3314 ft
Nearby Weather Stations

Elev 3314 ft 45.94 °N, 116.12 °W | Updated 5 minutes ago

Mostly Cloudy
Mostly Cloudy
45 °F
Feels Like 41 °F
N
8
Wind Variable Wind from SW

Today
High -- | Low -- °F
--% Chance of Precip.
Yesterday
High -- | Low -- °F
Precip. -- in
7:13 AM 5:44 PM
New Moon, 2% visible
Pressure 30.00 in
Visibility 0.2 miles
Clouds Overcast 300 ft
Windchill 41 °F
Dew Point 44 °F
Humidity 94%
Rainfall 0.11 in
Snow Depth Not available.
UV 0 out of 12
Pollen .80 out of 12
PM2.5 Moderate
Flu Activity No Activity
METAR KGIC 250535Z AUTO 22007KT 1/4SM OVC003 07/06 A3000 RMK AO1 T00730064

More Conditions Fewer Conditions

Pressure 30.00 in
Visibility 0.2 miles
Clouds Overcast 300 ft
Windchill 41 °F
Dew Point 44 °F
Humidity 94%
Rainfall 0.11 in
Snow Depth Not available.
UV 0 out of 12
Pollen .80 out of 12
PM2.5 Moderate
Flu Activity No Activity
METAR KGIC 250535Z AUTO 22007KT 1/4SM OVC003 07/06 A3000 RMK AO1 T00730064

More Conditions Fewer Conditions

10-Day Weather Forecast

Almanac

Astronomy

Oct. 24, 2014 Rise Set
Actual Time 7:13 AM PDT 5:44 PM PDT
Civil Twilight 6:43 AM PDT 6:14 PM PDT
Nautical Twilight 6:08 AM PDT 6:49 PM PDT
Astronomical Twilight 5:34 AM PDT 7:23 PM PDT
Moon 7:59 AM PDT (10/24) 6:24 PM PDT (10/24)
Length of Visible Light 11h 31m
Length of Day
10h 30m
Tomorrow will be 2m 58s shorter.
New Moon, 2% of the Moon is Illuminated
Oct 25
New Moon
Oct 30
First Quarter
Nov 6
Full
Nov 14
Last Quarter
Nov 22
New

Yesterday's Extremes

State Highs State Lows

Community

WunderPhotos

Upload Photos

1,764,785 photos uploaded!

Nearby

Air Quality

  Air Quality AQ Index Pollutant
Yesterday Good
PM2.5
Current Moderate
PM2.5
Friday Good
PM2.5
Saturday Good
PM2.5
Sunday Good
PM2.5
Monday Good
PM2.5

Snow Depth

Station Depth Elevation
Secesh Summit 0 in 6520 ft
Brundage Reservoir 0 in 6300 ft
Bear Basin 0 in 5350 ft
Squaw Flat 1 in 6240 ft
Long Valley 0 in 4890 ft

Earthquake Activity

City Distance Mag. Time & Date
No recent earthquake activity has been reported nearby.
Minimum magnitude displayed is 2.5.

Coastal Water Temperatures

Place Temperature
No Stations Reporting

Nearby Weather Stations